sensor_id;sensor_type;location;lat;lon;timestamp;temperature;humidity
3790;DHT22;1910;49.042;9.028;2023-03-31T00:01:49;10.80;99.90
3790;DHT22;1910;49.042;9.028;2023-03-31T00:04:16;10.60;99.90
3790;DHT22;1910;49.042;9.028;2023-03-31T00:06:42;10.40;99.90
3790;DHT22;1910;49.042;9.028;2023-03-31T00:09:13;10.40;99.90
3790;DHT22;1910;49.042;9.028;2023-03-31T00:11:40;10.40;99.90
3790;DHT22;1910;49.042;9.028;2023-03-31T00:14:06;10.40;99.90
3790;DHT22;1910;49.042;9.028;2023-03-31T00:16:33;10.40;99.90
3790;DHT22;1910;49.042;9.028;2023-03-31T00:18:59;10.50;99.90
3790;DHT22;1910;49.042;9.028;2023-03-31T00:21:26;10.40;99.90
3790;DHT22;1910;49.042;9.028;2023-03-31T00:24:00;10.40;99.90
3790;DHT22;1910;49.042;9.028;2023-03-31T00:26:26;10.40;99.90
3790;DHT22;1910;49.042;9.028;2023-03-31T00:28:53;10.50;99.90
3790;DHT22;1910;49.042;9.028;2023-03-31T00:31:19;10.60;99.90
3790;DHT22;1910;49.042;9.028;2023-03-31T00:33:45;10.60;99.90
3790;DHT22;1910;49.042;9.028;2023-03-31T00:36:12;12.80;99.90
3790;DHT22;1910;49.042;9.028;2023-03-31T00:38:37;10.70;99.90
3790;DHT22;1910;49.042;9.028;2023-03-31T00:41:04;10.70;99.90
3790;DHT22;1910;49.042;9.028;2023-03-31T00:43:37;10.80;99.90
3790;DHT22;1910;49.042;9.028;2023-03-31T00:46:19;10.90;99.90
3790;DHT22;1910;49.042;9.028;2023-03-31T00:48:50;10.90;99.90
3790;DHT22;1910;49.042;9.028;2023-03-31T00:51:17;10.90;99.90
3790;DHT22;1910;49.042;9.028;2023-03-31T00:53:45;10.90;99.90
3790;DHT22;1910;49.042;9.028;2023-03-31T00:56:16;10.90;99.90
3790;DHT22;1910;49.042;9.028;2023-03-31T00:58:43;10.80;99.90
3790;DHT22;1910;49.042;9.028;2023-03-31T01:01:13;10.80;99.90
3790;DHT22;1910;49.042;9.028;2023-03-31T01:03:41;10.60;99.90
3790;DHT22;1910;49.042;9.028;2023-03-31T01:06:10;10.50;99.90
3790;DHT22;1910;49.042;9.028;2023-03-31T01:08:37;10.40;99.90
3790;DHT22;1910;49.042;9.028;2023-03-31T01:11:06;10.40;99.90
3790;DHT22;1910;49.042;9.028;2023-03-31T01:13:35;10.70;99.90
3790;DHT22;1910;49.042;9.028;2023-03-31T01:16:01;10.80;99.90
3790;DHT22;1910;49.042;9.028;2023-03-31T01:18:27;10.90;99.90
3790;DHT22;1910;49.042;9.028;2023-03-31T01:21:38;10.80;99.90
3790;DHT22;1910;49.042;9.028;2023-03-31T01:24:19;11.00;99.90
3790;DHT22;1910;49.042;9.028;2023-03-31T01:44:29;10.90;99.90
3790;DHT22;1910;49.042;9.028;2023-03-31T01:47:05;10.90;99.90
3790;DHT22;1910;49.042;9.028;2023-03-31T01:49:42;10.90;99.90
3790;DHT22;1910;49.042;9.028;2023-03-31T01:52:22;10.90;99.90
3790;DHT22;1910;49.042;9.028;2023-03-31T01:57:48;11.00;99.90
3790;DHT22;1910;49.042;9.028;2023-03-31T02:00:18;11.10;99.90
3790;DHT22;1910;49.042;9.028;2023-03-31T02:03:05;11.10;99.90
3790;DHT22;1910;49.042;9.028;2023-03-31T02:05:39;11.10;99.90
3790;DHT22;1910;49.042;9.028;2023-03-31T02:08:10;11.10;99.90
3790;DHT22;1910;49.042;9.028;2023-03-31T02:10:40;11.10;99.90
3790;DHT22;1910;49.042;9.028;2023-03-31T02:13:07;11.20;99.90
3790;DHT22;1910;49.042;9.028;2023-03-31T02:15:39;11.20;99.90
3790;DHT22;1910;49.042;9.028;2023-03-31T02:18:10;11.30;99.90
3790;DHT22;1910;49.042;9.028;2023-03-31T02:20:39;11.20;99.90
3790;DHT22;1910;49.042;9.028;2023-03-31T02:23:09;11.20;99.90
3790;DHT22;1910;49.042;9.028;2023-03-31T02:25:46;11.20;99.90
3790;DHT22;1910;49.042;9.028;2023-03-31T02:28:20;11.10;99.90
3790;DHT22;1910;49.042;9.028;2023-03-31T02:33:31;11.10;99.90
3790;DHT22;1910;49.042;9.028;2023-03-31T02:35:57;11.00;99.90
3790;DHT22;1910;49.042;9.028;2023-03-31T02:38:23;11.10;99.90
3790;DHT22;1910;49.042;9.028;2023-03-31T02:40:49;11.10;99.90
3790;DHT22;1910;49.042;9.028;2023-03-31T02:43:14;11.00;99.90
3790;DHT22;1910;49.042;9.028;2023-03-31T02:45:48;11.00;99.90
3790;DHT22;1910;49.042;9.028;2023-03-31T02:48:17;10.90;99.90
3790;DHT22;1910;49.042;9.028;2023-03-31T02:53:49;10.90;99.90
3790;DHT22;1910;49.042;9.028;2023-03-31T02:56:27;11.00;99.90
3790;DHT22;1910;49.042;9.028;2023-03-31T02:59:13;11.00;99.90
3790;DHT22;1910;49.042;9.028;2023-03-31T03:01:48;11.00;99.90
3790;DHT22;1910;49.042;9.028;2023-03-31T03:07:45;11.00;99.90
3790;DHT22;1910;49.042;9.028;2023-03-31T03:10:21;11.00;99.90
3790;DHT22;1910;49.042;9.028;2023-03-31T03:15:36;11.00;99.90
3790;DHT22;1910;49.042;9.028;2023-03-31T03:18:04;11.00;99.90
3790;DHT22;1910;49.042;9.028;2023-03-31T03:20:31;11.00;99.90
3790;DHT22;1910;49.042;9.028;2023-03-31T03:22:58;11.00;99.90
3790;DHT22;1910;49.042;9.028;2023-03-31T03:25:24;11.00;99.90
3790;DHT22;1910;49.042;9.028;2023-03-31T03:27:50;11.00;99.90
3790;DHT22;1910;49.042;9.028;2023-03-31T03:30:17;11.00;99.90
3790;DHT22;1910;49.042;9.028;2023-03-31T03:32:43;10.90;99.90
3790;DHT22;1910;49.042;9.028;2023-03-31T03:35:10;10.90;99.90
3790;DHT22;1910;49.042;9.028;2023-03-31T03:40:02;10.90;99.90
3790;DHT22;1910;49.042;9.028;2023-03-31T03:42:31;10.90;99.90
3790;DHT22;1910;49.042;9.028;2023-03-31T03:44:56;11.00;99.90
3790;DHT22;1910;49.042;9.028;2023-03-31T03:49:49;11.00;99.90
3790;DHT22;1910;49.042;9.028;2023-03-31T03:54:41;10.90;99.90
3790;DHT22;1910;49.042;9.028;2023-03-31T04:04:24;10.90;99.90
3790;DHT22;1910;49.042;9.028;2023-03-31T04:06:50;10.80;99.90
3790;DHT22;1910;49.042;9.028;2023-03-31T04:09:16;10.70;99.90
3790;DHT22;1910;49.042;9.028;2023-03-31T04:14:07;10.50;99.90
3790;DHT22;1910;49.042;9.028;2023-03-31T04:16:33;10.40;99.90
3790;DHT22;1910;49.042;9.028;2023-03-31T04:18:59;10.50;99.90
3790;DHT22;1910;49.042;9.028;2023-03-31T04:21:28;10.50;99.90
3790;DHT22;1910;49.042;9.028;2023-03-31T04:23:57;10.50;99.90
3790;DHT22;1910;49.042;9.028;2023-03-31T04:26:27;11.00;99.90
3790;DHT22;1910;49.042;9.028;2023-03-31T04:33:55;10.50;99.90
3790;DHT22;1910;49.042;9.028;2023-03-31T04:36:29;10.50;99.90
3790;DHT22;1910;49.042;9.028;2023-03-31T04:39:07;10.60;99.90
3790;DHT22;1910;49.042;9.028;2023-03-31T04:44:01;10.60;99.90
3790;DHT22;1910;49.042;9.028;2023-03-31T04:46:27;10.60;99.90
3790;DHT22;1910;49.042;9.028;2023-03-31T04:51:18;10.80;99.90
3790;DHT22;1910;49.042;9.028;2023-03-31T04:53:45;10.90;99.90
3790;DHT22;1910;49.042;9.028;2023-03-31T04:56:10;10.80;99.90
3790;DHT22;1910;49.042;9.028;2023-03-31T04:58:37;10.80;99.90
3790;DHT22;1910;49.042;9.028;2023-03-31T05:01:03;10.90;99.90
3790;DHT22;1910;49.042;9.028;2023-03-31T05:03:32;10.80;99.90
3790;DHT22;1910;49.042;9.028;2023-03-31T05:05:58;10.80;99.90
3790;DHT22;1910;49.042;9.028;2023-03-31T05:08:23;10.80;99.90
3790;DHT22;1910;49.042;9.028;2023-03-31T05:10:49;10.70;99.90
3790;DHT22;1910;49.042;9.028;2023-03-31T05:13:14;10.70;99.90
3790;DHT22;1910;49.042;9.028;2023-03-31T05:15:40;10.70;99.90
3790;DHT22;1910;49.042;9.028;2023-03-31T05:18:06;10.70;99.90
3790;DHT22;1910;49.042;9.028;2023-03-31T05:20:32;10.60;99.90
3790;DHT22;1910;49.042;9.028;2023-03-31T05:22:58;10.60;99.90
3790;DHT22;1910;49.042;9.028;2023-03-31T05:25:23;10.50;99.90
3790;DHT22;1910;49.042;9.028;2023-03-31T05:27:49;10.40;99.90
3790;DHT22;1910;49.042;9.028;2023-03-31T05:30:16;10.40;99.90
3790;DHT22;1910;49.042;9.028;2023-03-31T05:32:42;10.30;99.90
3790;DHT22;1910;49.042;9.028;2023-03-31T05:35:08;10.30;99.90
3790;DHT22;1910;49.042;9.028;2023-03-31T05:37:33;10.20;99.90
3790;DHT22;1910;49.042;9.028;2023-03-31T05:40:00;10.10;99.90
3790;DHT22;1910;49.042;9.028;2023-03-31T05:42:26;10.10;99.90
3790;DHT22;1910;49.042;9.028;2023-03-31T05:44:51;10.10;99.90
3790;DHT22;1910;49.042;9.028;2023-03-31T05:47:17;8.80;99.90
3790;DHT22;1910;49.042;9.028;2023-03-31T05:49:43;10.00;99.90
3790;DHT22;1910;49.042;9.028;2023-03-31T05:52:09;10.00;99.90
3790;DHT22;1910;49.042;9.028;2023-03-31T05:54:35;9.90;99.90
3790;DHT22;1910;49.042;9.028;2023-03-31T05:57:01;11.80;99.90
3790;DHT22;1910;49.042;9.028;2023-03-31T05:59:30;9.80;99.90
3790;DHT22;1910;49.042;9.028;2023-03-31T06:06:48;9.80;99.90
3790;DHT22;1910;49.042;9.028;2023-03-31T06:09:15;9.60;99.90
3790;DHT22;1910;49.042;9.028;2023-03-31T06:11:40;9.70;99.90
3790;DHT22;1910;49.042;9.028;2023-03-31T06:18:58;9.70;99.90
3790;DHT22;1910;49.042;9.028;2023-03-31T06:23:49;9.70;99.90
3790;DHT22;1910;49.042;9.028;2023-03-31T06:26:19;9.70;99.90
3790;DHT22;1910;49.042;9.028;2023-03-31T06:28:45;9.80;99.90
3790;DHT22;1910;49.042;9.028;2023-03-31T06:31:14;9.80;99.90
3790;DHT22;1910;49.042;9.028;2023-03-31T06:33:41;9.70;99.90
3790;DHT22;1910;49.042;9.028;2023-03-31T06:36:09;9.70;99.90
3790;DHT22;1910;49.042;9.028;2023-03-31T06:38:36;9.70;99.90
3790;DHT22;1910;49.042;9.028;2023-03-31T06:41:05;9.70;99.90
3790;DHT22;1910;49.042;9.028;2023-03-31T06:43:31;9.60;99.90
3790;DHT22;1910;49.042;9.028;2023-03-31T06:48:23;9.60;99.90
3790;DHT22;1910;49.042;9.028;2023-03-31T06:50:50;9.80;99.90
3790;DHT22;1910;49.042;9.028;2023-03-31T06:53:17;9.70;99.90
3790;DHT22;1910;49.042;9.028;2023-03-31T06:58:08;9.70;99.90
3790;DHT22;1910;49.042;9.028;2023-03-31T07:00:34;9.70;99.90
3790;DHT22;1910;49.042;9.028;2023-03-31T07:03:00;9.70;99.90
3790;DHT22;1910;49.042;9.028;2023-03-31T07:05:27;9.60;99.90
3790;DHT22;1910;49.042;9.028;2023-03-31T07:07:58;9.70;99.90
3790;DHT22;1910;49.042;9.028;2023-03-31T07:10:28;9.70;99.90
3790;DHT22;1910;49.042;9.028;2023-03-31T07:12:56;9.80;99.90
3790;DHT22;1910;49.042;9.028;2023-03-31T07:15:23;9.70;99.90
3790;DHT22;1910;49.042;9.028;2023-03-31T07:17:49;9.80;99.90
3790;DHT22;1910;49.042;9.028;2023-03-31T07:20:18;9.80;99.90
3790;DHT22;1910;49.042;9.028;2023-03-31T07:22:45;10.00;99.90
3790;DHT22;1910;49.042;9.028;2023-03-31T07:25:13;10.00;99.90
3790;DHT22;1910;49.042;9.028;2023-03-31T07:27:39;10.00;99.90
3790;DHT22;1910;49.042;9.028;2023-03-31T07:30:13;10.10;99.90
3790;DHT22;1910;49.042;9.028;2023-03-31T07:32:39;10.30;99.90
3790;DHT22;1910;49.042;9.028;2023-03-31T07:35:10;10.40;99.90
3790;DHT22;1910;49.042;9.028;2023-03-31T07:37:37;10.60;99.90
3790;DHT22;1910;49.042;9.028;2023-03-31T07:40:03;10.90;99.90
3790;DHT22;1910;49.042;9.028;2023-03-31T07:44:56;12.40;99.90
3790;DHT22;1910;49.042;9.028;2023-03-31T07:47:22;13.20;99.90
3790;DHT22;1910;49.042;9.028;2023-03-31T07:49:48;14.30;99.90
3790;DHT22;1910;49.042;9.028;2023-03-31T07:52:14;15.10;99.90
3790;DHT22;1910;49.042;9.028;2023-03-31T07:54:40;15.80;99.90
3790;DHT22;1910;49.042;9.028;2023-03-31T08:06:51;14.10;99.90
3790;DHT22;1910;49.042;9.028;2023-03-31T08:14:12;15.40;99.90
3790;DHT22;1910;49.042;9.028;2023-03-31T08:26:22;16.40;99.90
3790;DHT22;1910;49.042;9.028;2023-03-31T08:28:51;15.70;99.90
3790;DHT22;1910;49.042;9.028;2023-03-31T08:31:18;15.90;99.90
3790;DHT22;1910;49.042;9.028;2023-03-31T08:33:45;16.00;99.90
3790;DHT22;1910;49.042;9.028;2023-03-31T08:36:11;16.50;99.90
3790;DHT22;1910;49.042;9.028;2023-03-31T08:38:39;17.10;99.90
3790;DHT22;1910;49.042;9.028;2023-03-31T08:41:31;17.50;99.90
3790;DHT22;1910;49.042;9.028;2023-03-31T08:44:00;17.60;99.90
3790;DHT22;1910;49.042;9.028;2023-03-31T08:46:28;18.90;99.90
3790;DHT22;1910;49.042;9.028;2023-03-31T08:48:58;19.50;99.90
3790;DHT22;1910;49.042;9.028;2023-03-31T08:51:33;19.50;99.90
3790;DHT22;1910;49.042;9.028;2023-03-31T08:54:13;20.30;99.90
3790;DHT22;1910;49.042;9.028;2023-03-31T08:56:43;19.00;99.90
3790;DHT22;1910;49.042;9.028;2023-03-31T08:59:29;19.00;99.90
3790;DHT22;1910;49.042;9.028;2023-03-31T09:02:17;17.40;99.90
3790;DHT22;1910;49.042;9.028;2023-03-31T09:11:04;16.40;99.90
3790;DHT22;1910;49.042;9.028;2023-03-31T09:13:37;16.20;99.90
3790;DHT22;1910;49.042;9.028;2023-03-31T09:16:29;16.50;99.90
3790;DHT22;1910;49.042;9.028;2023-03-31T09:19:00;16.80;99.90
3790;DHT22;1910;49.042;9.028;2023-03-31T09:21:48;18.00;99.90
3790;DHT22;1910;49.042;9.028;2023-03-31T09:24:26;18.70;99.90
3790;DHT22;1910;49.042;9.028;2023-03-31T09:27:00;19.30;99.90
3790;DHT22;1910;49.042;9.028;2023-03-31T09:32:16;16.50;99.90
3790;DHT22;1910;49.042;9.028;2023-03-31T09:34:44;16.60;99.90
3790;DHT22;1910;49.042;9.028;2023-03-31T09:37:11;16.60;99.90
3790;DHT22;1910;49.042;9.028;2023-03-31T09:39:38;16.50;99.90
3790;DHT22;1910;49.042;9.028;2023-03-31T09:42:04;16.40;99.90
3790;DHT22;1910;49.042;9.028;2023-03-31T09:44:45;16.40;99.90
3790;DHT22;1910;49.042;9.028;2023-03-31T09:47:34;16.30;99.90
3790;DHT22;1910;49.042;9.028;2023-03-31T09:50:04;16.70;99.90
3790;DHT22;1910;49.042;9.028;2023-03-31T09:52:34;17.20;99.90
3790;DHT22;1910;49.042;9.028;2023-03-31T09:57:46;16.00;99.90
3790;DHT22;1910;49.042;9.028;2023-03-31T10:02:54;15.80;99.90
3790;DHT22;1910;49.042;9.028;2023-03-31T10:05:30;14.80;99.90
3790;DHT22;1910;49.042;9.028;2023-03-31T10:10:55;13.80;99.90
3790;DHT22;1910;49.042;9.028;2023-03-31T10:13:27;13.40;99.90
3790;DHT22;1910;49.042;9.028;2023-03-31T10:16:05;13.20;99.90
3790;DHT22;1910;49.042;9.028;2023-03-31T10:18:37;13.30;99.90
3790;DHT22;1910;49.042;9.028;2023-03-31T10:21:05;13.50;99.90
3790;DHT22;1910;49.042;9.028;2023-03-31T10:23:33;13.70;99.90
3790;DHT22;1910;49.042;9.028;2023-03-31T10:25:59;14.10;99.90
3790;DHT22;1910;49.042;9.028;2023-03-31T10:28:26;13.80;99.90
3790;DHT22;1910;49.042;9.028;2023-03-31T10:30:57;14.00;99.90
3790;DHT22;1910;49.042;9.028;2023-03-31T10:33:27;13.90;99.90
3790;DHT22;1910;49.042;9.028;2023-03-31T10:35:58;14.10;99.90
3790;DHT22;1910;49.042;9.028;2023-03-31T10:38:29;13.80;99.90
3790;DHT22;1910;49.042;9.028;2023-03-31T10:40:57;13.70;99.90
3790;DHT22;1910;49.042;9.028;2023-03-31T10:43:26;13.80;99.90
3790;DHT22;1910;49.042;9.028;2023-03-31T10:45:55;13.60;99.90
3790;DHT22;1910;49.042;9.028;2023-03-31T10:48:25;13.90;99.90
3790;DHT22;1910;49.042;9.028;2023-03-31T10:50:52;14.60;99.90
3790;DHT22;1910;49.042;9.028;2023-03-31T10:53:18;14.20;99.90
3790;DHT22;1910;49.042;9.028;2023-03-31T10:56:00;14.50;99.90
3790;DHT22;1910;49.042;9.028;2023-03-31T10:58:32;14.70;99.90
3790;DHT22;1910;49.042;9.028;2023-03-31T11:01:04;15.10;99.90
3790;DHT22;1910;49.042;9.028;2023-03-31T11:03:41;15.50;99.90
3790;DHT22;1910;49.042;9.028;2023-03-31T11:06:19;15.50;99.90
3790;DHT22;1910;49.042;9.028;2023-03-31T11:11:59;15.20;99.90
3790;DHT22;1910;49.042;9.028;2023-03-31T11:14:39;15.50;99.90
3790;DHT22;1910;49.042;9.028;2023-03-31T11:17:17;14.20;99.90
3790;DHT22;1910;49.042;9.028;2023-03-31T11:31:00;10.80;99.90
3790;DHT22;1910;49.042;9.028;2023-03-31T11:33:42;11.00;99.90
3790;DHT22;1910;49.042;9.028;2023-03-31T11:38:58;11.00;99.90
3790;DHT22;1910;49.042;9.028;2023-03-31T11:41:40;11.10;99.90
3790;DHT22;1910;49.042;9.028;2023-03-31T11:44:12;11.30;99.90
3790;DHT22;1910;49.042;9.028;2023-03-31T11:47:05;11.70;99.90
3790;DHT22;1910;49.042;9.028;2023-03-31T11:49:34;11.70;99.90
3790;DHT22;1910;49.042;9.028;2023-03-31T11:52:14;11.80;99.90
3790;DHT22;1910;49.042;9.028;2023-03-31T11:54:54;11.60;99.90
3790;DHT22;1910;49.042;9.028;2023-03-31T11:57:32;12.00;99.90
3790;DHT22;1910;49.042;9.028;2023-03-31T12:05:20;12.90;99.90
3790;DHT22;1910;49.042;9.028;2023-03-31T12:07:53;13.20;99.90
3790;DHT22;1910;49.042;9.028;2023-03-31T12:10:30;13.20;99.90
3790;DHT22;1910;49.042;9.028;2023-03-31T12:15:55;13.10;99.90
3790;DHT22;1910;49.042;9.028;2023-03-31T12:18:29;13.20;99.90
3790;DHT22;1910;49.042;9.028;2023-03-31T12:20:58;14.30;99.90
3790;DHT22;1910;49.042;9.028;2023-03-31T12:23:32;13.40;99.90
3790;DHT22;1910;49.042;9.028;2023-03-31T12:26:29;13.70;99.90
3790;DHT22;1910;49.042;9.028;2023-03-31T12:28:56;14.50;99.90
3790;DHT22;1910;49.042;9.028;2023-03-31T12:31:23;14.90;99.90
3790;DHT22;1910;49.042;9.028;2023-03-31T12:34:00;14.70;99.90
3790;DHT22;1910;49.042;9.028;2023-03-31T12:36:44;14.00;99.90
3790;DHT22;1910;49.042;9.028;2023-03-31T12:45:32;13.90;99.90
3790;DHT22;1910;49.042;9.028;2023-03-31T12:48:34;13.80;99.90
3790;DHT22;1910;49.042;9.028;2023-03-31T12:51:37;13.50;99.90
3790;DHT22;1910;49.042;9.028;2023-03-31T13:04:35;13.50;99.90
3790;DHT22;1910;49.042;9.028;2023-03-31T13:07:02;13.40;99.90
3790;DHT22;1910;49.042;9.028;2023-03-31T13:09:42;13.40;99.90
3790;DHT22;1910;49.042;9.028;2023-03-31T13:12:13;14.30;99.90
3790;DHT22;1910;49.042;9.028;2023-03-31T13:14:43;14.70;99.90
3790;DHT22;1910;49.042;9.028;2023-03-31T13:19:47;14.00;99.90
3790;DHT22;1910;49.042;9.028;2023-03-31T13:22:32;14.10;99.90
3790;DHT22;1910;49.042;9.028;2023-03-31T13:27:57;14.30;99.90
3790;DHT22;1910;49.042;9.028;2023-03-31T13:33:13;13.60;99.90
3790;DHT22;1910;49.042;9.028;2023-03-31T13:35:46;13.60;99.90
3790;DHT22;1910;49.042;9.028;2023-03-31T13:47:13;13.50;99.90
3790;DHT22;1910;49.042;9.028;2023-03-31T13:49:58;13.80;99.90
3790;DHT22;1910;49.042;9.028;2023-03-31T13:56:24;13.70;99.90
3790;DHT22;1910;49.042;9.028;2023-03-31T13:59:15;14.00;99.90
3790;DHT22;1910;49.042;9.028;2023-03-31T14:02:01;13.70;99.90
3790;DHT22;1910;49.042;9.028;2023-03-31T14:04:59;13.60;99.90
3790;DHT22;1910;49.042;9.028;2023-03-31T14:07:36;13.60;99.90
3790;DHT22;1910;49.042;9.028;2023-03-31T14:10:02;13.70;99.90
3790;DHT22;1910;49.042;9.028;2023-03-31T14:12:36;13.70;99.90
3790;DHT22;1910;49.042;9.028;2023-03-31T14:15:04;13.60;99.90
3790;DHT22;1910;49.042;9.028;2023-03-31T14:17:35;13.60;99.90
3790;DHT22;1910;49.042;9.028;2023-03-31T14:20:19;13.80;99.90
3790;DHT22;1910;49.042;9.028;2023-03-31T14:23:00;13.60;99.90
3790;DHT22;1910;49.042;9.028;2023-03-31T14:31:44;13.70;99.90
3790;DHT22;1910;49.042;9.028;2023-03-31T14:34:33;13.40;99.90
3790;DHT22;1910;49.042;9.028;2023-03-31T14:37:05;13.50;99.90
3790;DHT22;1910;49.042;9.028;2023-03-31T14:39:36;13.90;99.90
3790;DHT22;1910;49.042;9.028;2023-03-31T14:42:09;14.10;99.90
3790;DHT22;1910;49.042;9.028;2023-03-31T14:44:36;14.20;99.90
3790;DHT22;1910;49.042;9.028;2023-03-31T14:47:04;13.70;99.90
3790;DHT22;1910;49.042;9.028;2023-03-31T14:49:35;13.50;99.90
3790;DHT22;1910;49.042;9.028;2023-03-31T14:52:12;13.50;99.90
3790;DHT22;1910;49.042;9.028;2023-03-31T14:54:38;13.50;99.90
3790;DHT22;1910;49.042;9.028;2023-03-31T14:57:05;13.50;99.90
3790;DHT22;1910;49.042;9.028;2023-03-31T14:59:33;13.50;99.90
3790;DHT22;1910;49.042;9.028;2023-03-31T15:02:01;13.70;99.90
3790;DHT22;1910;49.042;9.028;2023-03-31T15:04:30;13.80;99.90
3790;DHT22;1910;49.042;9.028;2023-03-31T15:06:58;13.70;99.90
3790;DHT22;1910;49.042;9.028;2023-03-31T15:09:29;13.60;99.90
3790;DHT22;1910;49.042;9.028;2023-03-31T15:12:07;13.60;99.90
3790;DHT22;1910;49.042;9.028;2023-03-31T15:14:41;13.60;99.90
3790;DHT22;1910;49.042;9.028;2023-03-31T15:17:18;13.70;99.90
3790;DHT22;1910;49.042;9.028;2023-03-31T15:19:44;13.80;99.90
3790;DHT22;1910;49.042;9.028;2023-03-31T15:22:15;13.70;99.90
3790;DHT22;1910;49.042;9.028;2023-03-31T15:24:43;13.60;99.90
3790;DHT22;1910;49.042;9.028;2023-03-31T15:27:34;13.40;99.90
3790;DHT22;1910;49.042;9.028;2023-03-31T15:30:02;13.40;99.90
3790;DHT22;1910;49.042;9.028;2023-03-31T15:32:36;13.30;99.90
3790;DHT22;1910;49.042;9.028;2023-03-31T15:35:03;13.10;99.90
3790;DHT22;1910;49.042;9.028;2023-03-31T15:37:39;13.20;99.90
3790;DHT22;1910;49.042;9.028;2023-03-31T15:40:22;13.10;99.90
3790;DHT22;1910;49.042;9.028;2023-03-31T15:42:51;13.10;99.90
3790;DHT22;1910;49.042;9.028;2023-03-31T15:47:55;13.00;99.90
3790;DHT22;1910;49.042;9.028;2023-03-31T15:50:23;12.90;99.90
3790;DHT22;1910;49.042;9.028;2023-03-31T15:52:51;12.90;99.90
3790;DHT22;1910;49.042;9.028;2023-03-31T15:55:31;12.80;99.90
3790;DHT22;1910;49.042;9.028;2023-03-31T15:58:03;12.30;99.90
3790;DHT22;1910;49.042;9.028;2023-03-31T16:01:09;12.10;99.90
3790;DHT22;1910;49.042;9.028;2023-03-31T16:03:35;12.00;99.90
3790;DHT22;1910;49.042;9.028;2023-03-31T16:06:13;12.00;99.90
3790;DHT22;1910;49.042;9.028;2023-03-31T16:08:42;12.20;99.90
3790;DHT22;1910;49.042;9.028;2023-03-31T16:11:16;12.20;99.90
3790;DHT22;1910;49.042;9.028;2023-03-31T16:13:47;12.20;99.90
3790;DHT22;1910;49.042;9.028;2023-03-31T16:16:17;12.50;99.90
3790;DHT22;1910;49.042;9.028;2023-03-31T16:18:49;12.60;99.90
3790;DHT22;1910;49.042;9.028;2023-03-31T16:21:25;13.00;99.90
3790;DHT22;1910;49.042;9.028;2023-03-31T16:23:56;12.50;99.90
3790;DHT22;1910;49.042;9.028;2023-03-31T16:26:23;12.50;99.90
3790;DHT22;1910;49.042;9.028;2023-03-31T16:28:51;12.40;99.90
3790;DHT22;1910;49.042;9.028;2023-03-31T16:31:38;12.40;99.90
3790;DHT22;1910;49.042;9.028;2023-03-31T16:34:09;12.30;99.90
3790;DHT22;1910;49.042;9.028;2023-03-31T16:36:35;12.30;99.90
3790;DHT22;1910;49.042;9.028;2023-03-31T16:39:02;12.20;99.90
3790;DHT22;1910;49.042;9.028;2023-03-31T16:41:31;12.10;99.90
3790;DHT22;1910;49.042;9.028;2023-03-31T16:43:57;12.10;99.90
3790;DHT22;1910;49.042;9.028;2023-03-31T16:46:23;12.20;99.90
3790;DHT22;1910;49.042;9.028;2023-03-31T16:48:49;12.10;99.90
3790;DHT22;1910;49.042;9.028;2023-03-31T16:51:15;12.10;99.90
3790;DHT22;1910;49.042;9.028;2023-03-31T16:53:42;11.90;99.90
3790;DHT22;1910;49.042;9.028;2023-03-31T16:56:08;11.80;99.90
3790;DHT22;1910;49.042;9.028;2023-03-31T16:58:35;11.80;99.90
3790;DHT22;1910;49.042;9.028;2023-03-31T17:01:01;11.80;99.90
3790;DHT22;1910;49.042;9.028;2023-03-31T17:03:27;11.70;99.90
3790;DHT22;1910;49.042;9.028;2023-03-31T17:05:54;11.60;99.90
3790;DHT22;1910;49.042;9.028;2023-03-31T17:08:23;11.20;99.90
3790;DHT22;1910;49.042;9.028;2023-03-31T17:11:17;10.90;99.90
3790;DHT22;1910;49.042;9.028;2023-03-31T17:13:43;10.50;99.90
3790;DHT22;1910;49.042;9.028;2023-03-31T17:16:09;10.20;99.90
3790;DHT22;1910;49.042;9.028;2023-03-31T17:18:36;10.00;99.90
3790;DHT22;1910;49.042;9.028;2023-03-31T17:21:03;9.70;99.90
3790;DHT22;1910;49.042;9.028;2023-03-31T17:23:29;9.60;99.90
3790;DHT22;1910;49.042;9.028;2023-03-31T17:25:55;9.50;99.90
3790;DHT22;1910;49.042;9.028;2023-03-31T17:28:20;9.50;99.90
3790;DHT22;1910;49.042;9.028;2023-03-31T17:30:46;9.50;99.90
3790;DHT22;1910;49.042;9.028;2023-03-31T17:33:15;9.50;99.90
3790;DHT22;1910;49.042;9.028;2023-03-31T17:35:41;9.40;99.90
3790;DHT22;1910;49.042;9.028;2023-03-31T17:38:08;9.30;99.90
3790;DHT22;1910;49.042;9.028;2023-03-31T17:40:35;9.30;99.90
3790;DHT22;1910;49.042;9.028;2023-03-31T17:43:01;9.20;99.90
3790;DHT22;1910;49.042;9.028;2023-03-31T17:45:30;9.20;99.90
3790;DHT22;1910;49.042;9.028;2023-03-31T17:50:23;9.00;99.90
3790;DHT22;1910;49.042;9.028;2023-03-31T17:52:49;9.00;99.90
3790;DHT22;1910;49.042;9.028;2023-03-31T17:55:16;8.80;99.90
3790;DHT22;1910;49.042;9.028;2023-03-31T17:57:42;8.90;99.90
3790;DHT22;1910;49.042;9.028;2023-03-31T18:00:09;8.90;99.90
3790;DHT22;1910;49.042;9.028;2023-03-31T18:02:38;8.90;99.90
3790;DHT22;1910;49.042;9.028;2023-03-31T18:05:05;8.90;99.90
3790;DHT22;1910;49.042;9.028;2023-03-31T18:07:32;8.90;99.90
3790;DHT22;1910;49.042;9.028;2023-03-31T18:09:58;9.00;99.90
3790;DHT22;1910;49.042;9.028;2023-03-31T18:12:24;9.00;99.90
3790;DHT22;1910;49.042;9.028;2023-03-31T18:14:50;8.90;99.90
3790;DHT22;1910;49.042;9.028;2023-03-31T18:17:16;8.90;99.90
3790;DHT22;1910;49.042;9.028;2023-03-31T18:19:43;8.80;99.90
3790;DHT22;1910;49.042;9.028;2023-03-31T18:22:09;8.80;99.90
3790;DHT22;1910;49.042;9.028;2023-03-31T18:24:35;8.80;99.90
3790;DHT22;1910;49.042;9.028;2023-03-31T18:27:03;8.80;99.90
3790;DHT22;1910;49.042;9.028;2023-03-31T18:29:29;8.70;99.90
3790;DHT22;1910;49.042;9.028;2023-03-31T18:31:56;8.70;99.90
3790;DHT22;1910;49.042;9.028;2023-03-31T18:34:22;8.70;99.90
3790;DHT22;1910;49.042;9.028;2023-03-31T18:36:48;8.70;99.90
3790;DHT22;1910;49.042;9.028;2023-03-31T18:39:15;8.70;99.90
3790;DHT22;1910;49.042;9.028;2023-03-31T18:41:44;8.70;99.90
3790;DHT22;1910;49.042;9.028;2023-03-31T18:44:10;8.80;99.90
3790;DHT22;1910;49.042;9.028;2023-03-31T18:46:39;8.80;99.90
3790;DHT22;1910;49.042;9.028;2023-03-31T18:49:05;8.70;99.90
3790;DHT22;1910;49.042;9.028;2023-03-31T18:51:30;8.70;99.90
3790;DHT22;1910;49.042;9.028;2023-03-31T18:53:58;8.70;99.90
3790;DHT22;1910;49.042;9.028;2023-03-31T18:56:23;8.60;99.90
3790;DHT22;1910;49.042;9.028;2023-03-31T18:58:49;8.70;99.90
3790;DHT22;1910;49.042;9.028;2023-03-31T19:01:16;8.60;99.90
3790;DHT22;1910;49.042;9.028;2023-03-31T19:03:42;8.60;99.90
3790;DHT22;1910;49.042;9.028;2023-03-31T19:06:09;8.60;99.90
3790;DHT22;1910;49.042;9.028;2023-03-31T19:08:36;8.60;99.90
3790;DHT22;1910;49.042;9.028;2023-03-31T19:11:22;8.70;99.90
3790;DHT22;1910;49.042;9.028;2023-03-31T19:13:48;8.60;99.90
3790;DHT22;1910;49.042;9.028;2023-03-31T19:16:14;8.70;99.90
3790;DHT22;1910;49.042;9.028;2023-03-31T19:18:39;8.70;99.90
3790;DHT22;1910;49.042;9.028;2023-03-31T19:21:05;8.60;99.90
3790;DHT22;1910;49.042;9.028;2023-03-31T19:23:31;8.70;99.90
3790;DHT22;1910;49.042;9.028;2023-03-31T19:25:57;8.70;99.90
3790;DHT22;1910;49.042;9.028;2023-03-31T19:28:24;8.60;99.90
3790;DHT22;1910;49.042;9.028;2023-03-31T19:30:52;8.70;99.90
3790;DHT22;1910;49.042;9.028;2023-03-31T19:33:18;8.70;99.90
3790;DHT22;1910;49.042;9.028;2023-03-31T19:35:46;8.80;99.90
3790;DHT22;1910;49.042;9.028;2023-03-31T19:38:12;8.80;99.90
3790;DHT22;1910;49.042;9.028;2023-03-31T19:40:39;8.90;99.90